sensor_id;sensor_type;location;lat;lon;timestamp;pressure;altitude;pressure_sealevel;temperature
37414;BMP280;23279;46.472;30.760;2023-01-04T00:01:59;78788.97;;;-146.33
37414;BMP280;23279;46.472;30.760;2023-01-04T00:04:24;78809.31;;;-146.33
37414;BMP280;23279;46.472;30.760;2023-01-04T00:06:50;78833.75;;;-146.33
37414;BMP280;23279;46.472;30.760;2023-01-04T00:09:15;78821.53;;;-146.33
37414;BMP280;23279;46.472;30.760;2023-01-04T00:11:41;78819.50;;;-146.33
37414;BMP280;23279;46.472;30.760;2023-01-04T00:14:06;78825.59;;;-146.33
37414;BMP280;23279;46.472;30.760;2023-01-04T00:16:31;78821.53;;;-146.33
37414;BMP280;23279;46.472;30.760;2023-01-04T00:18:57;78803.22;;;-146.33
37414;BMP280;23279;46.472;30.760;2023-01-04T00:21:25;78809.31;;;-146.33
37414;BMP280;23279;46.472;30.760;2023-01-04T00:23:53;78829.69;;;-146.33
37414;BMP280;23279;46.472;30.760;2023-01-04T00:26:26;78835.78;;;-146.33
37414;BMP280;23279;46.472;30.760;2023-01-04T00:28:54;78821.53;;;-146.33
37414;BMP280;23279;46.472;30.760;2023-01-04T00:31:20;78841.88;;;-146.33
37414;BMP280;23279;46.472;30.760;2023-01-04T00:33:46;78845.97;;;-146.33
37414;BMP280;23279;46.472;30.760;2023-01-04T00:36:13;78833.75;;;-146.33
37414;BMP280;23279;46.472;30.760;2023-01-04T00:38:39;78821.53;;;-146.33
37414;BMP280;23279;46.472;30.760;2023-01-04T00:41:06;78813.41;;;-146.33
37414;BMP280;23279;46.472;30.760;2023-01-04T00:43:32;78801.19;;;-146.33
37414;BMP280;23279;46.472;30.760;2023-01-04T00:45:58;78821.53;;;-146.33
37414;BMP280;23279;46.472;30.760;2023-01-04T00:48:25;78825.59;;;-146.33
37414;BMP280;23279;46.472;30.760;2023-01-04T00:50:51;78807.28;;;-146.33
37414;BMP280;23279;46.472;30.760;2023-01-04T00:53:17;78803.22;;;-146.33
37414;BMP280;23279;46.472;30.760;2023-01-04T00:55:43;78801.19;;;-146.33
37414;BMP280;23279;46.472;30.760;2023-01-04T00:58:09;78821.53;;;-146.33
37414;BMP280;23279;46.472;30.760;2023-01-04T01:00:35;78827.66;;;-146.33
37414;BMP280;23279;46.472;30.760;2023-01-04T01:03:00;78839.84;;;-146.33
37414;BMP280;23279;46.472;30.760;2023-01-04T01:05:26;78821.53;;;-146.33
37414;BMP280;23279;46.472;30.760;2023-01-04T01:07:51;78841.88;;;-146.33
37414;BMP280;23279;46.472;30.760;2023-01-04T01:10:16;78843.94;;;-146.33
37414;BMP280;23279;46.472;30.760;2023-01-04T01:12:42;78837.81;;;-146.33
37414;BMP280;23279;46.472;30.760;2023-01-04T01:15:08;78843.94;;;-146.33
37414;BMP280;23279;46.472;30.760;2023-01-04T01:17:33;78839.84;;;-146.33
37414;BMP280;23279;46.472;30.760;2023-01-04T01:20:00;78845.97;;;-146.33
37414;BMP280;23279;46.472;30.760;2023-01-04T01:22:25;78837.81;;;-146.33
37414;BMP280;23279;46.472;30.760;2023-01-04T01:24:51;78854.09;;;-146.33
37414;BMP280;23279;46.472;30.760;2023-01-04T01:27:17;78858.19;;;-146.33
37414;BMP280;23279;46.472;30.760;2023-01-04T01:29:42;78862.25;;;-146.33
37414;BMP280;23279;46.472;30.760;2023-01-04T01:32:07;78884.63;;;-146.33
37414;BMP280;23279;46.472;30.760;2023-01-04T01:34:33;78874.47;;;-146.33
37414;BMP280;23279;46.472;30.760;2023-01-04T01:36:58;78882.59;;;-146.33
37414;BMP280;23279;46.472;30.760;2023-01-04T01:39:24;78892.78;;;-146.33
37414;BMP280;23279;46.472;30.760;2023-01-04T01:41:49;78892.78;;;-146.33
37414;BMP280;23279;46.472;30.760;2023-01-04T01:47:13;78902.97;;;-146.33
37414;BMP280;23279;46.472;30.760;2023-01-04T01:49:40;78929.41;;;-146.33
37414;BMP280;23279;46.472;30.760;2023-01-04T01:52:16;78923.31;;;-146.33
37414;BMP280;23279;46.472;30.760;2023-01-04T01:54:45;78923.31;;;-146.33
37414;BMP280;23279;46.472;30.760;2023-01-04T01:57:15;78923.31;;;-146.33
37414;BMP280;23279;46.472;30.760;2023-01-04T01:59:43;78921.28;;;-146.33
37414;BMP280;23279;46.472;30.760;2023-01-04T02:02:10;78923.31;;;-146.33
37414;BMP280;23279;46.472;30.760;2023-01-04T02:04:38;78937.56;;;-146.33
37414;BMP280;23279;46.472;30.760;2023-01-04T02:07:04;78935.53;;;-146.33
37414;BMP280;23279;46.472;30.760;2023-01-04T02:09:31;78941.63;;;-146.33
37414;BMP280;23279;46.472;30.760;2023-01-04T02:11:57;78929.41;;;-146.33
37414;BMP280;23279;46.472;30.760;2023-01-04T02:14:23;78947.75;;;-146.33
37414;BMP280;23279;46.472;30.760;2023-01-04T02:22:26;78943.66;;;-146.33
37414;BMP280;23279;46.472;30.760;2023-01-04T02:38:26;78943.66;;;-146.33
37414;BMP280;23279;46.472;30.760;2023-01-04T02:41:02;78939.59;;;-146.33
37414;BMP280;23279;46.472;30.760;2023-01-04T02:43:50;78945.69;;;-146.33
37414;BMP280;23279;46.472;30.760;2023-01-04T02:46:41;78951.81;;;-146.33
37414;BMP280;23279;46.472;30.760;2023-01-04T02:49:08;78959.94;;;-146.33
37414;BMP280;23279;46.472;30.760;2023-01-04T02:51:52;78976.25;;;-146.33
37414;BMP280;23279;46.472;30.760;2023-01-04T02:54:21;78980.31;;;-146.33
37414;BMP280;23279;46.472;30.760;2023-01-04T03:02:15;78976.25;;;-146.33
37414;BMP280;23279;46.472;30.760;2023-01-04T03:05:09;78964.03;;;-146.33
37414;BMP280;23279;46.472;30.760;2023-01-04T03:15:40;78978.28;;;-146.33
37414;BMP280;23279;46.472;30.760;2023-01-04T03:18:20;78976.25;;;-146.33
37414;BMP280;23279;46.472;30.760;2023-01-04T03:20:49;78976.25;;;-146.33
37414;BMP280;23279;46.472;30.760;2023-01-04T03:23:18;78970.13;;;-146.33
37414;BMP280;23279;46.472;30.760;2023-01-04T03:26:13;78974.19;;;-146.33
37414;BMP280;23279;46.472;30.760;2023-01-04T03:29:06;78994.56;;;-146.33
37414;BMP280;23279;46.472;30.760;2023-01-04T03:32:02;79000.66;;;-146.33
37414;BMP280;23279;46.472;30.760;2023-01-04T03:34:48;79000.66;;;-146.33
37414;BMP280;23279;46.472;30.760;2023-01-04T03:37:58;78996.59;;;-146.33
37414;BMP280;23279;46.472;30.760;2023-01-04T03:40:49;79010.84;;;-146.33
37414;BMP280;23279;46.472;30.760;2023-01-04T03:43:41;78998.63;;;-146.33
37414;BMP280;23279;46.472;30.760;2023-01-04T03:46:31;79004.75;;;-146.33
37414;BMP280;23279;46.472;30.760;2023-01-04T03:49:26;79000.66;;;-146.33
37414;BMP280;23279;46.472;30.760;2023-01-04T03:51:56;79012.88;;;-146.33
37414;BMP280;23279;46.472;30.760;2023-01-04T03:54:27;79016.94;;;-146.33
37414;BMP280;23279;46.472;30.760;2023-01-04T03:56:55;79010.84;;;-146.33
37414;BMP280;23279;46.472;30.760;2023-01-04T03:59:22;79025.09;;;-146.33
37414;BMP280;23279;46.472;30.760;2023-01-04T04:01:48;79018.97;;;-146.33
37414;BMP280;23279;46.472;30.760;2023-01-04T04:04:13;79008.81;;;-146.33
37414;BMP280;23279;46.472;30.760;2023-01-04T04:06:57;79039.34;;;-146.33
37414;BMP280;23279;46.472;30.760;2023-01-04T04:09:41;79059.69;;;-146.33
37414;BMP280;23279;46.472;30.760;2023-01-04T04:12:06;79049.53;;;-146.33
37414;BMP280;23279;46.472;30.760;2023-01-04T04:14:32;79045.44;;;-146.33
37414;BMP280;23279;46.472;30.760;2023-01-04T04:16:57;79065.81;;;-146.33
37414;BMP280;23279;46.472;30.760;2023-01-04T04:19:23;79082.09;;;-146.33
37414;BMP280;23279;46.472;30.760;2023-01-04T04:21:48;79092.28;;;-146.33
37414;BMP280;23279;46.472;30.760;2023-01-04T04:24:19;79106.53;;;-146.33
37414;BMP280;23279;46.472;30.760;2023-01-04T04:26:45;79112.63;;;-146.33
37414;BMP280;23279;46.472;30.760;2023-01-04T04:29:11;79114.66;;;-146.33
37414;BMP280;23279;46.472;30.760;2023-01-04T04:31:36;79118.72;;;-146.33
37414;BMP280;23279;46.472;30.760;2023-01-04T04:34:02;79122.81;;;-146.33
37414;BMP280;23279;46.472;30.760;2023-01-04T04:36:28;79143.16;;;-146.33
37414;BMP280;23279;46.472;30.760;2023-01-04T04:38:53;79120.75;;;-146.33
37414;BMP280;23279;46.472;30.760;2023-01-04T04:41:18;79130.94;;;-146.33
37414;BMP280;23279;46.472;30.760;2023-01-04T04:44:06;79130.94;;;-146.33
37414;BMP280;23279;46.472;30.760;2023-01-04T04:46:33;79143.16;;;-146.33
37414;BMP280;23279;46.472;30.760;2023-01-04T04:48:58;79147.22;;;-146.33
37414;BMP280;23279;46.472;30.760;2023-01-04T04:51:23;79151.31;;;-146.33
37414;BMP280;23279;46.472;30.760;2023-01-04T04:53:49;79149.25;;;-146.33
37414;BMP280;23279;46.472;30.760;2023-01-04T04:56:15;79147.22;;;-146.33
37414;BMP280;23279;46.472;30.760;2023-01-04T04:58:40;79151.31;;;-146.33
37414;BMP280;23279;46.472;30.760;2023-01-04T05:01:06;79167.59;;;-146.33
37414;BMP280;23279;46.472;30.760;2023-01-04T05:03:31;79149.25;;;-146.33
37414;BMP280;23279;46.472;30.760;2023-01-04T05:05:57;79155.38;;;-146.33
37414;BMP280;23279;46.472;30.760;2023-01-04T05:08:23;79171.66;;;-146.33
37414;BMP280;23279;46.472;30.760;2023-01-04T05:10:48;79179.81;;;-146.33
37414;BMP280;23279;46.472;30.760;2023-01-04T05:13:13;79175.72;;;-146.33
37414;BMP280;23279;46.472;30.760;2023-01-04T05:15:41;79177.75;;;-146.33
37414;BMP280;23279;46.472;30.760;2023-01-04T05:18:08;79196.09;;;-146.33
37414;BMP280;23279;46.472;30.760;2023-01-04T05:20:34;79202.19;;;-146.33
37414;BMP280;23279;46.472;30.760;2023-01-04T05:22:59;79216.44;;;-146.33
37414;BMP280;23279;46.472;30.760;2023-01-04T05:25:25;79212.38;;;-146.33
37414;BMP280;23279;46.472;30.760;2023-01-04T05:27:51;79222.56;;;-146.33
37414;BMP280;23279;46.472;30.760;2023-01-04T05:30:17;79240.88;;;-146.33
37414;BMP280;23279;46.472;30.760;2023-01-04T05:33:02;79232.72;;;-146.33
37414;BMP280;23279;46.472;30.760;2023-01-04T05:35:27;79261.22;;;-146.33
37414;BMP280;23279;46.472;30.760;2023-01-04T05:37:53;79259.19;;;-146.33
37414;BMP280;23279;46.472;30.760;2023-01-04T05:40:19;79269.38;;;-146.33
37414;BMP280;23279;46.472;30.760;2023-01-04T05:42:44;79287.69;;;-146.33
37414;BMP280;23279;46.472;30.760;2023-01-04T05:45:10;79318.25;;;-146.33
37414;BMP280;23279;46.472;30.760;2023-01-04T05:47:36;79318.25;;;-146.33
37414;BMP280;23279;46.472;30.760;2023-01-04T05:50:02;79324.34;;;-146.33
37414;BMP280;23279;46.472;30.760;2023-01-04T05:52:28;79338.59;;;-146.33
37414;BMP280;23279;46.472;30.760;2023-01-04T05:54:54;79387.47;;;-146.33
37414;BMP280;23279;46.472;30.760;2023-01-04T05:57:19;79391.53;;;-146.33
37414;BMP280;23279;46.472;30.760;2023-01-04T05:59:45;79422.06;;;-146.33
37414;BMP280;23279;46.472;30.760;2023-01-04T06:02:19;79452.59;;;-146.33
37414;BMP280;23279;46.472;30.760;2023-01-04T06:04:45;79481.09;;;-146.33
37414;BMP280;23279;46.472;30.760;2023-01-04T06:07:11;79507.56;;;-146.33
37414;BMP280;23279;46.472;30.760;2023-01-04T06:09:36;79517.75;;;-146.33
37414;BMP280;23279;46.472;30.760;2023-01-04T06:12:02;79538.13;;;-146.33
37414;BMP280;23279;46.472;30.760;2023-01-04T06:14:27;79554.41;;;-146.33
37414;BMP280;23279;46.472;30.760;2023-01-04T06:16:52;79572.72;;;-146.33
37414;BMP280;23279;46.472;30.760;2023-01-04T06:19:18;79578.84;;;-146.33
37414;BMP280;23279;46.472;30.760;2023-01-04T06:21:43;79586.97;;;-146.33
37414;BMP280;23279;46.472;30.760;2023-01-04T06:24:09;79591.06;;;-146.33
37414;BMP280;23279;46.472;30.760;2023-01-04T06:26:35;79591.06;;;-146.33
37414;BMP280;23279;46.472;30.760;2023-01-04T06:29:01;79580.88;;;-146.33
37414;BMP280;23279;46.472;30.760;2023-01-04T06:31:26;79554.41;;;-146.33
37414;BMP280;23279;46.472;30.760;2023-01-04T06:33:51;79548.28;;;-146.33
37414;BMP280;23279;46.472;30.760;2023-01-04T06:36:17;79546.25;;;-146.33
37414;BMP280;23279;46.472;30.760;2023-01-04T06:38:42;79534.03;;;-146.33
37414;BMP280;23279;46.472;30.760;2023-01-04T06:41:08;79511.66;;;-146.33
37414;BMP280;23279;46.472;30.760;2023-01-04T06:43:33;79495.34;;;-146.33
37414;BMP280;23279;46.472;30.760;2023-01-04T06:45:58;79501.47;;;-146.33
37414;BMP280;23279;46.472;30.760;2023-01-04T06:48:26;79466.84;;;-146.33
37414;BMP280;23279;46.472;30.760;2023-01-04T06:50:51;79485.19;;;-146.33
37414;BMP280;23279;46.472;30.760;2023-01-04T06:53:17;79464.81;;;-146.33
37414;BMP280;23279;46.472;30.760;2023-01-04T06:55:43;79481.09;;;-146.33
37414;BMP280;23279;46.472;30.760;2023-01-04T06:58:09;79503.50;;;-146.33
37414;BMP280;23279;46.472;30.760;2023-01-04T07:00:34;79509.59;;;-146.33
37414;BMP280;23279;46.472;30.760;2023-01-04T07:02:59;79538.13;;;-146.33
37414;BMP280;23279;46.472;30.760;2023-01-04T07:05:25;79513.69;;;-146.33
37414;BMP280;23279;46.472;30.760;2023-01-04T07:07:50;79529.97;;;-146.33
37414;BMP280;23279;46.472;30.760;2023-01-04T07:10:16;79552.38;;;-146.33
37414;BMP280;23279;46.472;30.760;2023-01-04T07:12:41;79523.88;;;-146.33
37414;BMP280;23279;46.472;30.760;2023-01-04T07:15:07;79532.00;;;-146.33
37414;BMP280;23279;46.472;30.760;2023-01-04T07:17:32;79548.28;;;-146.33
37414;BMP280;23279;46.472;30.760;2023-01-04T07:19:58;79558.47;;;-146.33
37414;BMP280;23279;46.472;30.760;2023-01-04T07:22:23;79582.91;;;-146.33
37414;BMP280;23279;46.472;30.760;2023-01-04T07:24:48;79603.25;;;-146.33
37414;BMP280;23279;46.472;30.760;2023-01-04T07:27:14;79611.41;;;-146.33
37414;BMP280;23279;46.472;30.760;2023-01-04T07:29:39;79603.25;;;-146.33
37414;BMP280;23279;46.472;30.760;2023-01-04T07:32:08;79621.59;;;-146.33
37414;BMP280;23279;46.472;30.760;2023-01-04T07:34:34;79644.00;;;-146.33
37414;BMP280;23279;46.472;30.760;2023-01-04T07:37:01;79648.06;;;-146.33
37414;BMP280;23279;46.472;30.760;2023-01-04T07:39:26;79656.22;;;-146.33
37414;BMP280;23279;46.472;30.760;2023-01-04T07:41:51;79631.78;;;-146.33
37414;BMP280;23279;46.472;30.760;2023-01-04T07:44:17;79635.84;;;-146.33
37414;BMP280;23279;46.472;30.760;2023-01-04T07:46:42;79692.84;;;-146.33
37414;BMP280;23279;46.472;30.760;2023-01-04T07:49:12;79707.09;;;-146.33
37414;BMP280;23279;46.472;30.760;2023-01-04T07:51:37;79741.72;;;-146.33
37414;BMP280;23279;46.472;30.760;2023-01-04T07:54:03;79796.69;;;-146.33
37414;BMP280;23279;46.472;30.760;2023-01-04T07:56:29;79825.22;;;-146.33
37414;BMP280;23279;46.472;30.760;2023-01-04T07:58:54;79835.38;;;-146.33
37414;BMP280;23279;46.472;30.760;2023-01-04T08:01:22;79851.69;;;-146.33
37414;BMP280;23279;46.472;30.760;2023-01-04T08:03:48;79870.00;;;-146.33
37414;BMP280;23279;46.472;30.760;2023-01-04T08:06:15;79927.00;;;-146.33
37414;BMP280;23279;46.472;30.760;2023-01-04T08:08:40;79986.06;;;-146.33
37414;BMP280;23279;46.472;30.760;2023-01-04T08:11:11;80008.47;;;-146.33
37414;BMP280;23279;46.472;30.760;2023-01-04T08:13:37;80026.78;;;-146.33
37414;BMP280;23279;46.472;30.760;2023-01-04T08:16:03;80061.41;;;-146.33
37414;BMP280;23279;46.472;30.760;2023-01-04T08:18:28;80063.44;;;-146.33
37414;BMP280;23279;46.472;30.760;2023-01-04T08:21:07;80063.44;;;-146.33
37414;BMP280;23279;46.472;30.760;2023-01-04T08:23:34;80063.44;;;-146.33
37414;BMP280;23279;46.472;30.760;2023-01-04T08:26:11;80077.72;;;-146.33
37414;BMP280;23279;46.472;30.760;2023-01-04T08:28:37;80098.06;;;-146.33
37414;BMP280;23279;46.472;30.760;2023-01-04T08:31:13;80100.09;;;-146.33
37414;BMP280;23279;46.472;30.760;2023-01-04T08:33:39;80096.03;;;-146.33
37414;BMP280;23279;46.472;30.760;2023-01-04T08:36:24;80098.06;;;-146.33
37414;BMP280;23279;46.472;30.760;2023-01-04T08:38:53;80083.81;;;-146.33
37414;BMP280;23279;46.472;30.760;2023-01-04T08:41:18;80077.72;;;-146.33
37414;BMP280;23279;46.472;30.760;2023-01-04T08:43:44;80094.00;;;-146.33
37414;BMP280;23279;46.472;30.760;2023-01-04T08:46:11;80136.75;;;-146.33
37414;BMP280;23279;46.472;30.760;2023-01-04T08:48:37;80151.00;;;-146.33
37414;BMP280;23279;46.472;30.760;2023-01-04T08:51:05;80161.19;;;-146.33
37414;BMP280;23279;46.472;30.760;2023-01-04T08:53:31;80191.75;;;-146.33
37414;BMP280;23279;46.472;30.760;2023-01-04T08:55:57;80185.63;;;-146.33
37414;BMP280;23279;46.472;30.760;2023-01-04T08:58:28;80208.03;;;-146.33
37414;BMP280;23279;46.472;30.760;2023-01-04T09:01:10;80208.03;;;-146.33
37414;BMP280;23279;46.472;30.760;2023-01-04T09:03:36;80195.81;;;-146.33
37414;BMP280;23279;46.472;30.760;2023-01-04T09:06:04;80203.97;;;-146.33
37414;BMP280;23279;46.472;30.760;2023-01-04T09:08:32;80218.22;;;-146.33
37414;BMP280;23279;46.472;30.760;2023-01-04T09:11:01;80210.06;;;-146.33
37414;BMP280;23279;46.472;30.760;2023-01-04T09:13:27;80226.38;;;-146.33
37414;BMP280;23279;46.472;30.760;2023-01-04T09:15:52;80226.38;;;-146.33
37414;BMP280;23279;46.472;30.760;2023-01-04T09:18:18;80216.19;;;-146.33
37414;BMP280;23279;46.472;30.760;2023-01-04T09:20:43;80206.00;;;-146.33
37414;BMP280;23279;46.472;30.760;2023-01-04T09:23:08;80201.94;;;-146.33
37414;BMP280;23279;46.472;30.760;2023-01-04T09:25:34;80169.34;;;-146.33
37414;BMP280;23279;46.472;30.760;2023-01-04T09:28:02;80151.00;;;-146.33
37414;BMP280;23279;46.472;30.760;2023-01-04T09:30:27;80128.63;;;-146.33
37414;BMP280;23279;46.472;30.760;2023-01-04T09:32:55;80110.28;;;-146.33
37414;BMP280;23279;46.472;30.760;2023-01-04T09:35:21;80132.69;;;-146.33
37414;BMP280;23279;46.472;30.760;2023-01-04T09:37:46;80120.47;;;-146.33
37414;BMP280;23279;46.472;30.760;2023-01-04T09:40:20;80157.13;;;-146.33
37414;BMP280;23279;46.472;30.760;2023-01-04T09:42:48;80173.41;;;-146.33
37414;BMP280;23279;46.472;30.760;2023-01-04T09:45:19;80187.66;;;-146.33
37414;BMP280;23279;46.472;30.760;2023-01-04T09:48:04;80153.06;;;-146.33
37414;BMP280;23279;46.472;30.760;2023-01-04T09:50:55;80159.16;;;-146.33
37414;BMP280;23279;46.472;30.760;2023-01-04T09:56:07;80193.78;;;-146.33
37414;BMP280;23279;46.472;30.760;2023-01-04T09:58:35;80220.25;;;-146.33
37414;BMP280;23279;46.472;30.760;2023-01-04T10:01:10;80199.88;;;-146.33
37414;BMP280;23279;46.472;30.760;2023-01-04T10:03:44;80189.72;;;-146.33
37414;BMP280;23279;46.472;30.760;2023-01-04T10:06:11;80165.28;;;-146.33
37414;BMP280;23279;46.472;30.760;2023-01-04T10:08:39;80175.44;;;-146.33
37414;BMP280;23279;46.472;30.760;2023-01-04T10:22:50;80085.84;;;-146.33
37414;BMP280;23279;46.472;30.760;2023-01-04T10:27:59;80079.75;;;-146.33
37414;BMP280;23279;46.472;30.760;2023-01-04T10:30:39;80081.78;;;-146.33
37414;BMP280;23279;46.472;30.760;2023-01-04T10:36:35;80067.53;;;-146.33
37414;BMP280;23279;46.472;30.760;2023-01-04T10:39:15;80049.19;;;-146.33
37414;BMP280;23279;46.472;30.760;2023-01-04T10:41:54;80047.16;;;-146.33
37414;BMP280;23279;46.472;30.760;2023-01-04T10:44:33;80051.22;;;-146.33
37414;BMP280;23279;46.472;30.760;2023-01-04T10:47:09;80063.44;;;-146.33
37414;BMP280;23279;46.472;30.760;2023-01-04T10:49:43;80053.25;;;-146.33
37414;BMP280;23279;46.472;30.760;2023-01-04T10:52:14;80075.66;;;-146.33
37414;BMP280;23279;46.472;30.760;2023-01-04T10:54:51;80087.88;;;-146.33
37414;BMP280;23279;46.472;30.760;2023-01-04T11:00:04;80087.88;;;-146.33
37414;BMP280;23279;46.472;30.760;2023-01-04T11:05:18;80110.28;;;-146.33
37414;BMP280;23279;46.472;30.760;2023-01-04T11:10:40;80124.53;;;-146.33
37414;BMP280;23279;46.472;30.760;2023-01-04T11:13:04;80089.91;;;-146.33
37414;BMP280;23279;46.472;30.760;2023-01-04T11:15:30;80081.78;;;-146.33
37414;BMP280;23279;46.472;30.760;2023-01-04T11:17:56;80071.59;;;-146.33
37414;BMP280;23279;46.472;30.760;2023-01-04T11:20:22;80085.84;;;-146.33
37414;BMP280;23279;46.472;30.760;2023-01-04T11:23:01;80069.56;;;-146.33
37414;BMP280;23279;46.472;30.760;2023-01-04T11:25:32;80063.44;;;-146.33
37414;BMP280;23279;46.472;30.760;2023-01-04T11:31:02;80043.09;;;-146.33
37414;BMP280;23279;46.472;30.760;2023-01-04T11:33:28;80047.16;;;-146.33
37414;BMP280;23279;46.472;30.760;2023-01-04T11:35:55;80063.44;;;-146.33
37414;BMP280;23279;46.472;30.760;2023-01-04T11:38:25;80051.22;;;-146.33
37414;BMP280;23279;46.472;30.760;2023-01-04T11:40:58;80049.19;;;-146.33
37414;BMP280;23279;46.472;30.760;2023-01-04T11:43:27;80018.66;;;-146.33
37414;BMP280;23279;46.472;30.760;2023-01-04T11:48:18;79977.91;;;-146.33
37414;BMP280;23279;46.472;30.760;2023-01-04T11:50:44;79990.13;;;-146.33
37414;BMP280;23279;46.472;30.760;2023-01-04T11:56:07;79994.22;;;-146.33
37414;BMP280;23279;46.472;30.760;2023-01-04T11:58:33;80002.34;;;-146.33
37414;BMP280;23279;46.472;30.760;2023-01-04T12:00:58;79982.00;;;-146.33
37414;BMP280;23279;46.472;30.760;2023-01-04T12:05:49;79982.00;;;-146.33
37414;BMP280;23279;46.472;30.760;2023-01-04T12:10:50;79979.97;;;-146.33
37414;BMP280;23279;46.472;30.760;2023-01-04T12:13:15;79986.06;;;-146.33
37414;BMP280;23279;46.472;30.760;2023-01-04T12:18:19;79986.06;;;-146.33
37414;BMP280;23279;46.472;30.760;2023-01-04T12:20:46;79992.19;;;-146.33
37414;BMP280;23279;46.472;30.760;2023-01-04T12:23:12;79986.06;;;-146.33
37414;BMP280;23279;46.472;30.760;2023-01-04T12:28:12;79969.78;;;-146.33
37414;BMP280;23279;46.472;30.760;2023-01-04T12:30:51;79984.03;;;-146.33
37414;BMP280;23279;46.472;30.760;2023-01-04T12:36:06;79992.19;;;-146.33
37414;BMP280;23279;46.472;30.760;2023-01-04T13:05:51;79892.41;;;-146.33
37414;BMP280;23279;46.472;30.760;2023-01-04T13:08:17;79876.09;;;-146.33
37414;BMP280;23279;46.472;30.760;2023-01-04T13:10:49;79851.69;;;-146.33
37414;BMP280;23279;46.472;30.760;2023-01-04T13:18:53;79733.56;;;-146.33
37414;BMP280;23279;46.472;30.760;2023-01-04T13:23:54;79729.50;;;-146.33
37414;BMP280;23279;46.472;30.760;2023-01-04T13:29:22;79727.47;;;-146.33
37414;BMP280;23279;46.472;30.760;2023-01-04T13:31:54;79780.41;;;-146.33
37414;BMP280;23279;46.472;30.760;2023-01-04T13:34:26;79833.34;;;-146.33
37414;BMP280;23279;46.472;30.760;2023-01-04T13:39:59;79927.00;;;-146.33
37414;BMP280;23279;46.472;30.760;2023-01-04T13:42:35;79973.84;;;-146.33
37414;BMP280;23279;46.472;30.760;2023-01-04T13:47:33;80030.88;;;-146.33
37414;BMP280;23279;46.472;30.760;2023-01-04T13:50:00;80039.00;;;-146.33
37414;BMP280;23279;46.472;30.760;2023-01-04T13:52:27;80061.41;;;-146.33
37414;BMP280;23279;46.472;30.760;2023-01-04T13:57:51;80075.66;;;-146.33
37414;BMP280;23279;46.472;30.760;2023-01-04T14:00:17;80087.88;;;-146.33
37414;BMP280;23279;46.472;30.760;2023-01-04T14:02:42;80096.03;;;-146.33
37414;BMP280;23279;46.472;30.760;2023-01-04T14:05:14;80112.31;;;-146.33
37414;BMP280;23279;46.472;30.760;2023-01-04T14:07:42;80106.22;;;-146.33
37414;BMP280;23279;46.472;30.760;2023-01-04T14:10:15;80114.34;;;-146.33
37414;BMP280;23279;46.472;30.760;2023-01-04T14:12:42;80110.28;;;-146.33
37414;BMP280;23279;46.472;30.760;2023-01-04T14:15:20;80124.53;;;-146.33
37414;BMP280;23279;46.472;30.760;2023-01-04T14:17:53;80134.72;;;-146.33
37414;BMP280;23279;46.472;30.760;2023-01-04T14:38:26;80132.69;;;-146.33
37414;BMP280;23279;46.472;30.760;2023-01-04T14:40:52;80136.75;;;-146.33
37414;BMP280;23279;46.472;30.760;2023-01-04T14:43:35;80134.72;;;-146.33
37414;BMP280;23279;46.472;30.760;2023-01-04T14:46:01;80144.91;;;-146.33
37414;BMP280;23279;46.472;30.760;2023-01-04T14:48:28;80132.69;;;-146.33
37414;BMP280;23279;46.472;30.760;2023-01-04T14:50:54;80142.88;;;-146.33
37414;BMP280;23279;46.472;30.760;2023-01-04T14:53:19;80148.97;;;-146.33
37414;BMP280;23279;46.472;30.760;2023-01-04T14:55:45;80153.06;;;-146.33
37414;BMP280;23279;46.472;30.760;2023-01-04T14:58:11;80146.94;;;-146.33
37414;BMP280;23279;46.472;30.760;2023-01-04T15:00:36;80155.09;;;-146.33
37414;BMP280;23279;46.472;30.760;2023-01-04T15:03:02;80161.19;;;-146.33
37414;BMP280;23279;46.472;30.760;2023-01-04T15:05:27;80167.31;;;-146.33
37414;BMP280;23279;46.472;30.760;2023-01-04T15:07:53;80167.31;;;-146.33
37414;BMP280;23279;46.472;30.760;2023-01-04T15:10:24;80177.50;;;-146.33
37414;BMP280;23279;46.472;30.760;2023-01-04T15:12:50;80175.44;;;-146.33
37414;BMP280;23279;46.472;30.760;2023-01-04T15:15:15;80173.41;;;-146.33
37414;BMP280;23279;46.472;30.760;2023-01-04T15:17:41;80177.50;;;-146.33
37414;BMP280;23279;46.472;30.760;2023-01-04T15:20:07;80189.72;;;-146.33
37414;BMP280;23279;46.472;30.760;2023-01-04T15:22:33;80193.78;;;-146.33
37414;BMP280;23279;46.472;30.760;2023-01-04T15:24:58;80193.78;;;-146.33
37414;BMP280;23279;46.472;30.760;2023-01-04T15:27:24;80197.84;;;-146.33
37414;BMP280;23279;46.472;30.760;2023-01-04T15:29:49;80206.00;;;-146.33
37414;BMP280;23279;46.472;30.760;2023-01-04T15:32:15;80203.97;;;-146.33
37414;BMP280;23279;46.472;30.760;2023-01-04T15:34:40;80220.25;;;-146.33
37414;BMP280;23279;46.472;30.760;2023-01-04T15:37:06;80230.44;;;-146.33
37414;BMP280;23279;46.472;30.760;2023-01-04T15:39:31;80238.59;;;-146.33
37414;BMP280;23279;46.472;30.760;2023-01-04T15:41:56;80234.50;;;-146.33
37414;BMP280;23279;46.472;30.760;2023-01-04T15:44:42;80238.59;;;-146.33
37414;BMP280;23279;46.472;30.760;2023-01-04T15:47:07;80234.50;;;-146.33
37414;BMP280;23279;46.472;30.760;2023-01-04T15:49:32;80238.59;;;-146.33
37414;BMP280;23279;46.472;30.760;2023-01-04T15:51:58;80238.59;;;-146.33
37414;BMP280;23279;46.472;30.760;2023-01-04T15:54:24;80234.50;;;-146.33
37414;BMP280;23279;46.472;30.760;2023-01-04T15:56:50;80236.53;;;-146.33
37414;BMP280;23279;46.472;30.760;2023-01-04T15:59:16;80234.50;;;-146.33
37414;BMP280;23279;46.472;30.760;2023-01-04T16:01:42;80230.44;;;-146.33
37414;BMP280;23279;46.472;30.760;2023-01-04T16:04:08;80234.50;;;-146.33
37414;BMP280;23279;46.472;30.760;2023-01-04T16:06:36;80246.72;;;-146.33
37414;BMP280;23279;46.472;30.760;2023-01-04T16:09:01;80240.63;;;-146.33
37414;BMP280;23279;46.472;30.760;2023-01-04T16:11:28;80240.63;;;-146.33